Terminal Aerodrome Forecast
Issued by NWS Shreveport, LA

Current Version | Previous Version | Text Only | Print | Product List | Glossary On
Versions: 1 2 3 4 5 6 7 8 9 10 11 12 13 14 15 16 17 18 19
839
FTUS44 KSHV 052325
TAFTXK
TAF
KTXK 052325Z 0600/0624 08005KT 2SM -RA BR OVC004
     FM060900 29006KT 4SM -DZ BR OVC003
     FM061600 30006KT P6SM OVC009
     FM061900 35006KT P6SM BKN015 OVC020=

USA.gov is the U.S. government's official web portal to all federal, state and local government web resources and services.